sensor_id;sensor_type;location;lat;lon;timestamp;temperature;humidity
11748;DHT22;5931;48.832;9.072;2023-07-16T00:00:50;18.80;99.90
11748;DHT22;5931;48.832;9.072;2023-07-16T00:03:15;18.70;99.90
11748;DHT22;5931;48.832;9.072;2023-07-16T00:05:41;18.70;99.90
11748;DHT22;5931;48.832;9.072;2023-07-16T00:08:07;18.60;99.90
11748;DHT22;5931;48.832;9.072;2023-07-16T00:10:38;18.60;99.90
11748;DHT22;5931;48.832;9.072;2023-07-16T00:13:04;18.50;99.90
11748;DHT22;5931;48.832;9.072;2023-07-16T00:15:30;18.50;99.90
11748;DHT22;5931;48.832;9.072;2023-07-16T00:17:55;18.50;99.90
11748;DHT22;5931;48.832;9.072;2023-07-16T00:20:21;18.40;99.90
11748;DHT22;5931;48.832;9.072;2023-07-16T00:22:50;18.40;99.90
11748;DHT22;5931;48.832;9.072;2023-07-16T00:25:15;18.40;99.90
11748;DHT22;5931;48.832;9.072;2023-07-16T00:27:41;18.40;99.90
11748;DHT22;5931;48.832;9.072;2023-07-16T00:30:08;18.40;99.90
11748;DHT22;5931;48.832;9.072;2023-07-16T00:32:34;18.40;99.90
11748;DHT22;5931;48.832;9.072;2023-07-16T00:35:03;18.30;99.90
11748;DHT22;5931;48.832;9.072;2023-07-16T00:37:29;18.30;99.90
11748;DHT22;5931;48.832;9.072;2023-07-16T00:39:55;18.30;99.90
11748;DHT22;5931;48.832;9.072;2023-07-16T00:42:22;18.20;99.90
11748;DHT22;5931;48.832;9.072;2023-07-16T00:44:47;18.10;99.90
11748;DHT22;5931;48.832;9.072;2023-07-16T00:47:13;18.10;99.90
11748;DHT22;5931;48.832;9.072;2023-07-16T00:49:39;18.10;99.90
11748;DHT22;5931;48.832;9.072;2023-07-16T00:52:06;18.10;99.90
11748;DHT22;5931;48.832;9.072;2023-07-16T00:54:33;18.00;99.90
11748;DHT22;5931;48.832;9.072;2023-07-16T00:56:59;18.00;99.90
11748;DHT22;5931;48.832;9.072;2023-07-16T00:59:25;18.10;99.90
11748;DHT22;5931;48.832;9.072;2023-07-16T01:01:51;18.10;99.90
11748;DHT22;5931;48.832;9.072;2023-07-16T01:04:16;18.10;99.90
11748;DHT22;5931;48.832;9.072;2023-07-16T01:06:52;18.10;99.90
11748;DHT22;5931;48.832;9.072;2023-07-16T01:09:20;18.10;99.90
11748;DHT22;5931;48.832;9.072;2023-07-16T01:11:47;18.10;99.90
11748;DHT22;5931;48.832;9.072;2023-07-16T01:14:14;18.00;99.90
11748;DHT22;5931;48.832;9.072;2023-07-16T01:16:41;17.90;99.90
11748;DHT22;5931;48.832;9.072;2023-07-16T01:19:07;17.90;99.90
11748;DHT22;5931;48.832;9.072;2023-07-16T01:25:09;17.90;99.90
11748;DHT22;5931;48.832;9.072;2023-07-16T01:30:18;17.80;99.90
11748;DHT22;5931;48.832;9.072;2023-07-16T01:32:45;17.90;99.90
11748;DHT22;5931;48.832;9.072;2023-07-16T01:35:11;17.90;99.90
11748;DHT22;5931;48.832;9.072;2023-07-16T01:37:37;17.90;99.90
11748;DHT22;5931;48.832;9.072;2023-07-16T01:40:03;17.80;99.90
11748;DHT22;5931;48.832;9.072;2023-07-16T01:42:31;17.80;99.90
11748;DHT22;5931;48.832;9.072;2023-07-16T01:44:57;17.80;99.90
11748;DHT22;5931;48.832;9.072;2023-07-16T01:50:13;17.60;99.90
11748;DHT22;5931;48.832;9.072;2023-07-16T01:52:39;17.50;99.90
11748;DHT22;5931;48.832;9.072;2023-07-16T01:55:05;17.40;99.90
11748;DHT22;5931;48.832;9.072;2023-07-16T01:57:31;17.40;99.90
11748;DHT22;5931;48.832;9.072;2023-07-16T01:59:57;17.40;99.90
11748;DHT22;5931;48.832;9.072;2023-07-16T02:02:23;17.30;99.90
11748;DHT22;5931;48.832;9.072;2023-07-16T02:04:48;17.20;99.90
11748;DHT22;5931;48.832;9.072;2023-07-16T02:07:14;17.20;99.90
11748;DHT22;5931;48.832;9.072;2023-07-16T02:09:39;17.10;99.90
11748;DHT22;5931;48.832;9.072;2023-07-16T02:12:06;17.10;99.90
11748;DHT22;5931;48.832;9.072;2023-07-16T02:14:32;17.10;99.90
11748;DHT22;5931;48.832;9.072;2023-07-16T02:16:58;17.20;99.90
11748;DHT22;5931;48.832;9.072;2023-07-16T02:19:24;17.10;99.90
11748;DHT22;5931;48.832;9.072;2023-07-16T02:21:51;17.00;99.90
11748;DHT22;5931;48.832;9.072;2023-07-16T02:24:17;17.00;99.90
11748;DHT22;5931;48.832;9.072;2023-07-16T02:26:42;17.00;99.90
11748;DHT22;5931;48.832;9.072;2023-07-16T02:29:11;17.00;99.90
11748;DHT22;5931;48.832;9.072;2023-07-16T02:31:37;17.10;99.90
11748;DHT22;5931;48.832;9.072;2023-07-16T02:34:03;17.20;99.90
11748;DHT22;5931;48.832;9.072;2023-07-16T02:36:32;17.20;99.90
11748;DHT22;5931;48.832;9.072;2023-07-16T02:38:57;17.10;99.90
11748;DHT22;5931;48.832;9.072;2023-07-16T02:41:23;17.20;99.90
11748;DHT22;5931;48.832;9.072;2023-07-16T02:43:59;17.20;99.90
11748;DHT22;5931;48.832;9.072;2023-07-16T02:46:25;17.10;99.90
11748;DHT22;5931;48.832;9.072;2023-07-16T02:48:51;17.00;99.90
11748;DHT22;5931;48.832;9.072;2023-07-16T02:51:17;16.90;99.90
11748;DHT22;5931;48.832;9.072;2023-07-16T02:53:42;17.00;99.90
11748;DHT22;5931;48.832;9.072;2023-07-16T02:56:08;16.90;99.90
11748;DHT22;5931;48.832;9.072;2023-07-16T02:58:34;16.80;99.90
11748;DHT22;5931;48.832;9.072;2023-07-16T03:00:59;16.80;99.90
11748;DHT22;5931;48.832;9.072;2023-07-16T03:03:25;16.80;99.90
11748;DHT22;5931;48.832;9.072;2023-07-16T03:05:51;16.80;99.90
11748;DHT22;5931;48.832;9.072;2023-07-16T03:08:16;16.80;99.90
11748;DHT22;5931;48.832;9.072;2023-07-16T03:10:42;16.80;99.90
11748;DHT22;5931;48.832;9.072;2023-07-16T03:13:09;16.70;99.90
11748;DHT22;5931;48.832;9.072;2023-07-16T03:15:35;16.80;99.90
11748;DHT22;5931;48.832;9.072;2023-07-16T03:18:01;16.80;99.90
11748;DHT22;5931;48.832;9.072;2023-07-16T03:20:27;16.70;99.90
11748;DHT22;5931;48.832;9.072;2023-07-16T03:22:52;16.80;99.90
11748;DHT22;5931;48.832;9.072;2023-07-16T03:25:18;16.80;99.90
11748;DHT22;5931;48.832;9.072;2023-07-16T03:27:44;16.80;99.90
11748;DHT22;5931;48.832;9.072;2023-07-16T03:30:10;16.80;99.90
11748;DHT22;5931;48.832;9.072;2023-07-16T03:32:37;16.70;99.90
11748;DHT22;5931;48.832;9.072;2023-07-16T03:35:02;16.70;99.90
11748;DHT22;5931;48.832;9.072;2023-07-16T03:37:28;16.80;99.90
11748;DHT22;5931;48.832;9.072;2023-07-16T03:39:54;17.00;99.90
11748;DHT22;5931;48.832;9.072;2023-07-16T03:42:19;16.90;99.90
11748;DHT22;5931;48.832;9.072;2023-07-16T03:44:47;16.90;99.90
11748;DHT22;5931;48.832;9.072;2023-07-16T03:47:13;16.80;99.90
11748;DHT22;5931;48.832;9.072;2023-07-16T03:49:39;16.80;99.90
11748;DHT22;5931;48.832;9.072;2023-07-16T03:52:05;16.90;99.90
11748;DHT22;5931;48.832;9.072;2023-07-16T03:54:31;17.00;99.90
11748;DHT22;5931;48.832;9.072;2023-07-16T03:56:57;16.90;99.90
11748;DHT22;5931;48.832;9.072;2023-07-16T03:59:24;16.90;99.90
11748;DHT22;5931;48.832;9.072;2023-07-16T04:01:50;16.90;99.90
11748;DHT22;5931;48.832;9.072;2023-07-16T04:04:15;16.90;99.90
11748;DHT22;5931;48.832;9.072;2023-07-16T04:06:41;16.90;99.90
11748;DHT22;5931;48.832;9.072;2023-07-16T04:09:06;16.90;99.90
11748;DHT22;5931;48.832;9.072;2023-07-16T04:11:32;17.00;99.90
11748;DHT22;5931;48.832;9.072;2023-07-16T04:13:58;17.10;99.90
11748;DHT22;5931;48.832;9.072;2023-07-16T04:16:23;17.00;99.90
11748;DHT22;5931;48.832;9.072;2023-07-16T04:18:49;17.00;99.90
11748;DHT22;5931;48.832;9.072;2023-07-16T04:21:15;17.10;99.90
11748;DHT22;5931;48.832;9.072;2023-07-16T04:23:40;17.10;99.90
11748;DHT22;5931;48.832;9.072;2023-07-16T04:26:06;17.10;99.90
11748;DHT22;5931;48.832;9.072;2023-07-16T04:28:31;17.10;99.90
11748;DHT22;5931;48.832;9.072;2023-07-16T04:30:57;17.00;99.90
11748;DHT22;5931;48.832;9.072;2023-07-16T04:33:23;16.90;99.90
11748;DHT22;5931;48.832;9.072;2023-07-16T04:35:48;17.00;99.90
11748;DHT22;5931;48.832;9.072;2023-07-16T04:38:14;16.90;99.90
11748;DHT22;5931;48.832;9.072;2023-07-16T04:40:41;16.90;99.90
11748;DHT22;5931;48.832;9.072;2023-07-16T04:43:07;17.00;99.90
11748;DHT22;5931;48.832;9.072;2023-07-16T04:45:33;16.90;99.90
11748;DHT22;5931;48.832;9.072;2023-07-16T04:47:59;17.10;99.90
11748;DHT22;5931;48.832;9.072;2023-07-16T04:50:24;17.10;99.90
11748;DHT22;5931;48.832;9.072;2023-07-16T04:52:50;17.10;99.90
11748;DHT22;5931;48.832;9.072;2023-07-16T04:55:16;17.10;99.90
11748;DHT22;5931;48.832;9.072;2023-07-16T04:57:41;17.00;99.90
11748;DHT22;5931;48.832;9.072;2023-07-16T05:00:07;17.00;99.90
11748;DHT22;5931;48.832;9.072;2023-07-16T05:02:33;16.90;99.90
11748;DHT22;5931;48.832;9.072;2023-07-16T05:04:59;16.90;99.90
11748;DHT22;5931;48.832;9.072;2023-07-16T05:07:24;16.90;99.90
11748;DHT22;5931;48.832;9.072;2023-07-16T05:09:50;17.00;99.90
11748;DHT22;5931;48.832;9.072;2023-07-16T05:12:16;17.10;99.90
11748;DHT22;5931;48.832;9.072;2023-07-16T05:14:46;17.00;99.90
11748;DHT22;5931;48.832;9.072;2023-07-16T05:17:13;17.20;99.90
11748;DHT22;5931;48.832;9.072;2023-07-16T05:19:39;17.40;99.90
11748;DHT22;5931;48.832;9.072;2023-07-16T05:22:05;17.40;99.90
11748;DHT22;5931;48.832;9.072;2023-07-16T05:24:32;17.50;99.90
11748;DHT22;5931;48.832;9.072;2023-07-16T05:26:58;17.60;99.90
11748;DHT22;5931;48.832;9.072;2023-07-16T05:29:24;17.70;99.90
11748;DHT22;5931;48.832;9.072;2023-07-16T05:31:49;17.80;99.90
11748;DHT22;5931;48.832;9.072;2023-07-16T05:34:15;17.80;99.90
11748;DHT22;5931;48.832;9.072;2023-07-16T05:36:42;17.90;99.90
11748;DHT22;5931;48.832;9.072;2023-07-16T05:39:09;18.00;99.90
11748;DHT22;5931;48.832;9.072;2023-07-16T05:41:39;18.10;99.90
11748;DHT22;5931;48.832;9.072;2023-07-16T05:44:04;18.30;99.90
11748;DHT22;5931;48.832;9.072;2023-07-16T05:46:30;18.50;99.90
11748;DHT22;5931;48.832;9.072;2023-07-16T05:48:56;18.70;99.90
11748;DHT22;5931;48.832;9.072;2023-07-16T05:51:22;19.00;99.90
11748;DHT22;5931;48.832;9.072;2023-07-16T05:53:47;19.10;99.90
11748;DHT22;5931;48.832;9.072;2023-07-16T05:56:13;19.20;99.90
11748;DHT22;5931;48.832;9.072;2023-07-16T05:58:40;19.30;99.90
11748;DHT22;5931;48.832;9.072;2023-07-16T06:01:06;19.30;99.90
11748;DHT22;5931;48.832;9.072;2023-07-16T06:03:31;19.20;99.90
11748;DHT22;5931;48.832;9.072;2023-07-16T06:05:57;19.20;99.90
11748;DHT22;5931;48.832;9.072;2023-07-16T06:08:23;19.20;99.90
11748;DHT22;5931;48.832;9.072;2023-07-16T06:10:50;19.20;99.90
11748;DHT22;5931;48.832;9.072;2023-07-16T06:13:16;19.10;99.90
11748;DHT22;5931;48.832;9.072;2023-07-16T06:15:42;19.10;99.90
11748;DHT22;5931;48.832;9.072;2023-07-16T06:18:08;19.00;99.90
11748;DHT22;5931;48.832;9.072;2023-07-16T06:20:34;18.90;99.90
11748;DHT22;5931;48.832;9.072;2023-07-16T06:23:00;18.90;99.90
11748;DHT22;5931;48.832;9.072;2023-07-16T06:25:26;18.90;99.90
11748;DHT22;5931;48.832;9.072;2023-07-16T06:27:51;19.00;99.90
11748;DHT22;5931;48.832;9.072;2023-07-16T06:30:17;19.10;99.90
11748;DHT22;5931;48.832;9.072;2023-07-16T06:32:42;19.20;99.90
11748;DHT22;5931;48.832;9.072;2023-07-16T06:35:08;19.20;99.90
11748;DHT22;5931;48.832;9.072;2023-07-16T06:37:34;19.30;99.90
11748;DHT22;5931;48.832;9.072;2023-07-16T06:40:00;19.50;99.90
11748;DHT22;5931;48.832;9.072;2023-07-16T06:42:32;19.60;99.90
11748;DHT22;5931;48.832;9.072;2023-07-16T06:44:57;19.80;99.90
11748;DHT22;5931;48.832;9.072;2023-07-16T06:47:23;19.90;99.90
11748;DHT22;5931;48.832;9.072;2023-07-16T06:49:49;20.10;99.90
11748;DHT22;5931;48.832;9.072;2023-07-16T06:52:22;20.20;99.90
11748;DHT22;5931;48.832;9.072;2023-07-16T06:54:48;20.30;99.90
11748;DHT22;5931;48.832;9.072;2023-07-16T06:57:14;20.30;99.90
11748;DHT22;5931;48.832;9.072;2023-07-16T06:59:39;20.40;99.90
11748;DHT22;5931;48.832;9.072;2023-07-16T07:02:05;20.40;99.90
11748;DHT22;5931;48.832;9.072;2023-07-16T07:04:31;20.40;99.90
11748;DHT22;5931;48.832;9.072;2023-07-16T07:06:57;20.30;99.90
11748;DHT22;5931;48.832;9.072;2023-07-16T07:09:23;20.10;99.90
11748;DHT22;5931;48.832;9.072;2023-07-16T07:11:48;20.10;99.90
11748;DHT22;5931;48.832;9.072;2023-07-16T07:14:14;20.10;99.90
11748;DHT22;5931;48.832;9.072;2023-07-16T07:16:40;20.20;99.90
11748;DHT22;5931;48.832;9.072;2023-07-16T07:19:05;20.30;99.90
11748;DHT22;5931;48.832;9.072;2023-07-16T07:21:31;20.40;99.90
11748;DHT22;5931;48.832;9.072;2023-07-16T07:23:57;20.50;99.90
11748;DHT22;5931;48.832;9.072;2023-07-16T07:26:22;20.50;99.90
11748;DHT22;5931;48.832;9.072;2023-07-16T07:28:48;20.60;99.90
11748;DHT22;5931;48.832;9.072;2023-07-16T07:31:14;20.80;99.90
11748;DHT22;5931;48.832;9.072;2023-07-16T07:33:39;21.00;99.90
11748;DHT22;5931;48.832;9.072;2023-07-16T07:36:05;21.30;99.90
11748;DHT22;5931;48.832;9.072;2023-07-16T07:38:30;21.50;99.90
11748;DHT22;5931;48.832;9.072;2023-07-16T07:40:56;21.60;99.90
11748;DHT22;5931;48.832;9.072;2023-07-16T07:43:22;21.80;99.90
11748;DHT22;5931;48.832;9.072;2023-07-16T07:45:47;21.80;99.90
11748;DHT22;5931;48.832;9.072;2023-07-16T07:48:13;21.60;99.90
11748;DHT22;5931;48.832;9.072;2023-07-16T07:50:38;21.20;99.90
11748;DHT22;5931;48.832;9.072;2023-07-16T07:53:05;21.00;99.90
11748;DHT22;5931;48.832;9.072;2023-07-16T07:55:31;20.80;99.90
11748;DHT22;5931;48.832;9.072;2023-07-16T07:57:58;20.70;99.90
11748;DHT22;5931;48.832;9.072;2023-07-16T08:00:24;20.90;99.90
11748;DHT22;5931;48.832;9.072;2023-07-16T08:02:49;21.10;99.90
11748;DHT22;5931;48.832;9.072;2023-07-16T08:05:15;21.10;99.90
11748;DHT22;5931;48.832;9.072;2023-07-16T08:07:40;21.20;99.90
11748;DHT22;5931;48.832;9.072;2023-07-16T08:10:06;21.10;99.90
11748;DHT22;5931;48.832;9.072;2023-07-16T08:12:32;21.10;99.90
11748;DHT22;5931;48.832;9.072;2023-07-16T08:14:58;21.20;99.90
11748;DHT22;5931;48.832;9.072;2023-07-16T08:17:23;21.50;99.90
11748;DHT22;5931;48.832;9.072;2023-07-16T08:19:49;21.80;99.90
11748;DHT22;5931;48.832;9.072;2023-07-16T08:22:15;22.00;99.90
11748;DHT22;5931;48.832;9.072;2023-07-16T08:24:40;22.20;99.90
11748;DHT22;5931;48.832;9.072;2023-07-16T08:27:06;22.70;99.90
11748;DHT22;5931;48.832;9.072;2023-07-16T08:29:31;23.10;99.90
11748;DHT22;5931;48.832;9.072;2023-07-16T08:31:57;23.30;99.90
11748;DHT22;5931;48.832;9.072;2023-07-16T08:34:23;23.60;99.90
11748;DHT22;5931;48.832;9.072;2023-07-16T08:36:48;23.70;99.90
11748;DHT22;5931;48.832;9.072;2023-07-16T08:39:14;23.50;99.90
11748;DHT22;5931;48.832;9.072;2023-07-16T08:41:40;23.20;99.90
11748;DHT22;5931;48.832;9.072;2023-07-16T08:44:06;23.10;99.90
11748;DHT22;5931;48.832;9.072;2023-07-16T08:46:32;23.20;99.90
11748;DHT22;5931;48.832;9.072;2023-07-16T08:48:59;23.20;99.90
11748;DHT22;5931;48.832;9.072;2023-07-16T08:51:25;23.30;99.90
11748;DHT22;5931;48.832;9.072;2023-07-16T08:53:52;23.40;99.90
11748;DHT22;5931;48.832;9.072;2023-07-16T08:56:17;23.50;99.90
11748;DHT22;5931;48.832;9.072;2023-07-16T08:58:43;23.40;99.90
11748;DHT22;5931;48.832;9.072;2023-07-16T09:01:10;23.20;99.90
11748;DHT22;5931;48.832;9.072;2023-07-16T09:03:38;23.20;99.90
11748;DHT22;5931;48.832;9.072;2023-07-16T09:06:04;23.40;99.90
11748;DHT22;5931;48.832;9.072;2023-07-16T09:08:30;23.30;99.90
11748;DHT22;5931;48.832;9.072;2023-07-16T09:10:57;23.40;99.90
11748;DHT22;5931;48.832;9.072;2023-07-16T09:13:24;23.30;99.90
11748;DHT22;5931;48.832;9.072;2023-07-16T09:15:54;23.20;99.90
11748;DHT22;5931;48.832;9.072;2023-07-16T09:18:28;23.10;99.90
11748;DHT22;5931;48.832;9.072;2023-07-16T09:21:00;23.30;99.90
11748;DHT22;5931;48.832;9.072;2023-07-16T09:23:32;23.60;99.90
11748;DHT22;5931;48.832;9.072;2023-07-16T09:25:58;24.00;99.90
11748;DHT22;5931;48.832;9.072;2023-07-16T09:28:24;24.10;99.90
11748;DHT22;5931;48.832;9.072;2023-07-16T09:30:51;24.30;99.90
11748;DHT22;5931;48.832;9.072;2023-07-16T09:33:19;24.40;99.90
11748;DHT22;5931;48.832;9.072;2023-07-16T09:35:48;24.20;99.90
11748;DHT22;5931;48.832;9.072;2023-07-16T09:38:14;24.10;99.90
11748;DHT22;5931;48.832;9.072;2023-07-16T09:40:40;23.90;99.90
11748;DHT22;5931;48.832;9.072;2023-07-16T09:43:09;23.40;99.90
11748;DHT22;5931;48.832;9.072;2023-07-16T09:45:35;23.10;99.90
11748;DHT22;5931;48.832;9.072;2023-07-16T09:48:04;22.90;99.90
11748;DHT22;5931;48.832;9.072;2023-07-16T09:50:32;22.80;99.90
11748;DHT22;5931;48.832;9.072;2023-07-16T09:52:59;22.70;99.90
11748;DHT22;5931;48.832;9.072;2023-07-16T09:55:25;22.70;99.90
11748;DHT22;5931;48.832;9.072;2023-07-16T09:57:55;22.70;99.90
11748;DHT22;5931;48.832;9.072;2023-07-16T10:00:23;22.60;99.90
11748;DHT22;5931;48.832;9.072;2023-07-16T10:02:50;22.40;99.90
11748;DHT22;5931;48.832;9.072;2023-07-16T10:05:27;22.40;99.90
11748;DHT22;5931;48.832;9.072;2023-07-16T10:07:54;22.60;99.90
11748;DHT22;5931;48.832;9.072;2023-07-16T10:10:20;23.10;99.90
11748;DHT22;5931;48.832;9.072;2023-07-16T10:12:57;23.10;99.90
11748;DHT22;5931;48.832;9.072;2023-07-16T10:15:27;23.60;99.90
11748;DHT22;5931;48.832;9.072;2023-07-16T10:17:53;23.80;99.90
11748;DHT22;5931;48.832;9.072;2023-07-16T10:20:30;24.00;99.90
11748;DHT22;5931;48.832;9.072;2023-07-16T10:22:56;23.30;99.90
11748;DHT22;5931;48.832;9.072;2023-07-16T10:25:25;23.40;99.90
11748;DHT22;5931;48.832;9.072;2023-07-16T10:27:52;23.90;99.90
11748;DHT22;5931;48.832;9.072;2023-07-16T10:30:18;24.40;99.90
11748;DHT22;5931;48.832;9.072;2023-07-16T10:32:44;24.50;99.90
11748;DHT22;5931;48.832;9.072;2023-07-16T10:35:11;24.60;99.90
11748;DHT22;5931;48.832;9.072;2023-07-16T10:37:37;24.50;99.90
11748;DHT22;5931;48.832;9.072;2023-07-16T10:40:04;24.10;99.90
11748;DHT22;5931;48.832;9.072;2023-07-16T10:42:30;23.80;99.90
11748;DHT22;5931;48.832;9.072;2023-07-16T10:45:00;23.40;99.90
11748;DHT22;5931;48.832;9.072;2023-07-16T10:47:32;23.60;99.90
11748;DHT22;5931;48.832;9.072;2023-07-16T10:49:58;23.50;99.90
11748;DHT22;5931;48.832;9.072;2023-07-16T10:52:24;23.10;99.90
11748;DHT22;5931;48.832;9.072;2023-07-16T10:54:50;22.80;99.90
11748;DHT22;5931;48.832;9.072;2023-07-16T10:57:23;22.40;99.90
11748;DHT22;5931;48.832;9.072;2023-07-16T10:59:51;22.60;99.90
11748;DHT22;5931;48.832;9.072;2023-07-16T11:02:17;22.80;99.90
11748;DHT22;5931;48.832;9.072;2023-07-16T11:04:45;23.20;99.90
11748;DHT22;5931;48.832;9.072;2023-07-16T11:07:12;23.30;99.90
11748;DHT22;5931;48.832;9.072;2023-07-16T11:09:45;23.30;99.90
11748;DHT22;5931;48.832;9.072;2023-07-16T11:12:14;23.30;99.90
11748;DHT22;5931;48.832;9.072;2023-07-16T11:14:47;23.10;99.90
11748;DHT22;5931;48.832;9.072;2023-07-16T11:17:13;23.20;99.90
11748;DHT22;5931;48.832;9.072;2023-07-16T11:19:40;23.30;99.90
11748;DHT22;5931;48.832;9.072;2023-07-16T11:22:07;23.60;99.90
11748;DHT22;5931;48.832;9.072;2023-07-16T11:24:40;23.30;99.90
11748;DHT22;5931;48.832;9.072;2023-07-16T11:27:16;23.20;99.90
11748;DHT22;5931;48.832;9.072;2023-07-16T11:29:52;23.30;99.90
11748;DHT22;5931;48.832;9.072;2023-07-16T11:32:33;23.50;99.90
11748;DHT22;5931;48.832;9.072;2023-07-16T11:35:01;23.50;99.90
11748;DHT22;5931;48.832;9.072;2023-07-16T11:37:28;23.60;99.90
11748;DHT22;5931;48.832;9.072;2023-07-16T11:40:04;23.70;99.90
11748;DHT22;5931;48.832;9.072;2023-07-16T11:42:35;24.10;99.90
11748;DHT22;5931;48.832;9.072;2023-07-16T11:45:02;24.20;99.90
11748;DHT22;5931;48.832;9.072;2023-07-16T11:47:28;24.30;99.90
11748;DHT22;5931;48.832;9.072;2023-07-16T11:49:54;24.60;99.90
11748;DHT22;5931;48.832;9.072;2023-07-16T11:52:27;24.80;99.90
11748;DHT22;5931;48.832;9.072;2023-07-16T11:54:54;25.20;99.90
11748;DHT22;5931;48.832;9.072;2023-07-16T11:57:20;25.60;99.90
11748;DHT22;5931;48.832;9.072;2023-07-16T11:59:46;25.80;99.90
11748;DHT22;5931;48.832;9.072;2023-07-16T12:02:11;26.10;99.90
11748;DHT22;5931;48.832;9.072;2023-07-16T12:04:38;26.50;99.90
11748;DHT22;5931;48.832;9.072;2023-07-16T12:07:04;26.80;99.90
11748;DHT22;5931;48.832;9.072;2023-07-16T12:09:29;26.70;99.90
11748;DHT22;5931;48.832;9.072;2023-07-16T12:11:56;26.40;99.90
11748;DHT22;5931;48.832;9.072;2023-07-16T12:14:22;25.90;99.90
11748;DHT22;5931;48.832;9.072;2023-07-16T12:16:48;25.20;99.90
11748;DHT22;5931;48.832;9.072;2023-07-16T12:19:14;24.90;99.90
11748;DHT22;5931;48.832;9.072;2023-07-16T12:21:39;25.00;99.90
11748;DHT22;5931;48.832;9.072;2023-07-16T12:24:05;25.60;99.90
11748;DHT22;5931;48.832;9.072;2023-07-16T12:26:31;25.60;99.90
11748;DHT22;5931;48.832;9.072;2023-07-16T12:28:57;25.80;99.90
11748;DHT22;5931;48.832;9.072;2023-07-16T12:31:22;26.40;99.90
11748;DHT22;5931;48.832;9.072;2023-07-16T12:33:48;26.70;99.90
11748;DHT22;5931;48.832;9.072;2023-07-16T12:36:14;26.70;99.90
11748;DHT22;5931;48.832;9.072;2023-07-16T12:38:41;26.20;99.90
11748;DHT22;5931;48.832;9.072;2023-07-16T12:41:07;25.30;99.90
11748;DHT22;5931;48.832;9.072;2023-07-16T12:43:33;24.90;99.90
11748;DHT22;5931;48.832;9.072;2023-07-16T12:46:03;24.70;99.90
11748;DHT22;5931;48.832;9.072;2023-07-16T12:48:31;25.00;99.90
11748;DHT22;5931;48.832;9.072;2023-07-16T12:50:57;25.30;99.90
11748;DHT22;5931;48.832;9.072;2023-07-16T12:53:26;25.50;99.90
11748;DHT22;5931;48.832;9.072;2023-07-16T12:55:52;25.20;99.90
11748;DHT22;5931;48.832;9.072;2023-07-16T12:58:18;25.10;99.90
11748;DHT22;5931;48.832;9.072;2023-07-16T13:00:44;25.10;99.90
11748;DHT22;5931;48.832;9.072;2023-07-16T13:03:10;25.30;99.90
11748;DHT22;5931;48.832;9.072;2023-07-16T13:05:40;25.10;99.90
11748;DHT22;5931;48.832;9.072;2023-07-16T13:08:06;24.90;99.90
11748;DHT22;5931;48.832;9.072;2023-07-16T13:10:31;24.90;99.90
11748;DHT22;5931;48.832;9.072;2023-07-16T13:12:57;25.30;99.90
11748;DHT22;5931;48.832;9.072;2023-07-16T13:15:23;25.50;99.90
11748;DHT22;5931;48.832;9.072;2023-07-16T13:17:48;25.70;99.90
11748;DHT22;5931;48.832;9.072;2023-07-16T13:20:14;26.20;99.90
11748;DHT22;5931;48.832;9.072;2023-07-16T13:22:40;26.50;99.90
11748;DHT22;5931;48.832;9.072;2023-07-16T13:25:06;27.00;99.90
11748;DHT22;5931;48.832;9.072;2023-07-16T13:27:32;27.10;99.90
11748;DHT22;5931;48.832;9.072;2023-07-16T13:29:58;27.30;99.90
11748;DHT22;5931;48.832;9.072;2023-07-16T13:32:23;27.50;99.90
11748;DHT22;5931;48.832;9.072;2023-07-16T13:34:49;27.80;99.90
11748;DHT22;5931;48.832;9.072;2023-07-16T13:37:15;27.80;99.90
11748;DHT22;5931;48.832;9.072;2023-07-16T13:39:40;27.90;99.90
11748;DHT22;5931;48.832;9.072;2023-07-16T13:42:06;27.70;99.90
11748;DHT22;5931;48.832;9.072;2023-07-16T13:44:34;27.40;99.90
11748;DHT22;5931;48.832;9.072;2023-07-16T13:47:00;27.10;99.90
11748;DHT22;5931;48.832;9.072;2023-07-16T13:49:26;27.10;99.90
11748;DHT22;5931;48.832;9.072;2023-07-16T13:51:51;27.30;99.90
11748;DHT22;5931;48.832;9.072;2023-07-16T13:54:17;27.40;99.90
11748;DHT22;5931;48.832;9.072;2023-07-16T13:56:43;27.10;99.90
11748;DHT22;5931;48.832;9.072;2023-07-16T13:59:09;26.80;99.90
11748;DHT22;5931;48.832;9.072;2023-07-16T14:01:39;26.40;99.90
11748;DHT22;5931;48.832;9.072;2023-07-16T14:04:05;25.90;99.90
11748;DHT22;5931;48.832;9.072;2023-07-16T14:06:31;25.50;99.90
11748;DHT22;5931;48.832;9.072;2023-07-16T14:09:00;25.60;99.90
11748;DHT22;5931;48.832;9.072;2023-07-16T14:11:26;25.60;99.90
11748;DHT22;5931;48.832;9.072;2023-07-16T14:13:52;25.70;99.90
11748;DHT22;5931;48.832;9.072;2023-07-16T14:16:19;26.70;99.90
11748;DHT22;5931;48.832;9.072;2023-07-16T14:18:45;28.00;99.90
11748;DHT22;5931;48.832;9.072;2023-07-16T14:21:10;28.90;99.90
11748;DHT22;5931;48.832;9.072;2023-07-16T14:23:36;30.30;99.90
11748;DHT22;5931;48.832;9.072;2023-07-16T14:26:02;31.00;99.90
11748;DHT22;5931;48.832;9.072;2023-07-16T14:28:28;31.10;99.90
11748;DHT22;5931;48.832;9.072;2023-07-16T14:30:54;31.90;99.90
11748;DHT22;5931;48.832;9.072;2023-07-16T14:33:21;30.60;99.90
11748;DHT22;5931;48.832;9.072;2023-07-16T14:35:46;29.40;99.90
11748;DHT22;5931;48.832;9.072;2023-07-16T14:38:12;28.60;99.90
11748;DHT22;5931;48.832;9.072;2023-07-16T14:40:38;27.50;99.90
11748;DHT22;5931;48.832;9.072;2023-07-16T14:43:04;26.70;99.90
11748;DHT22;5931;48.832;9.072;2023-07-16T14:45:31;26.30;99.90
11748;DHT22;5931;48.832;9.072;2023-07-16T14:47:58;25.80;99.90
11748;DHT22;5931;48.832;9.072;2023-07-16T14:50:24;25.30;99.90
11748;DHT22;5931;48.832;9.072;2023-07-16T14:52:49;25.10;99.90
11748;DHT22;5931;48.832;9.072;2023-07-16T14:55:15;25.00;99.90
11748;DHT22;5931;48.832;9.072;2023-07-16T14:57:40;24.90;99.90
11748;DHT22;5931;48.832;9.072;2023-07-16T15:00:07;24.70;99.90
11748;DHT22;5931;48.832;9.072;2023-07-16T15:02:37;24.70;99.90
11748;DHT22;5931;48.832;9.072;2023-07-16T15:05:03;24.50;99.90
11748;DHT22;5931;48.832;9.072;2023-07-16T15:07:30;24.60;99.90
11748;DHT22;5931;48.832;9.072;2023-07-16T15:09:56;25.10;99.90
11748;DHT22;5931;48.832;9.072;2023-07-16T15:12:22;25.70;99.90
11748;DHT22;5931;48.832;9.072;2023-07-16T15:14:47;26.00;99.90
11748;DHT22;5931;48.832;9.072;2023-07-16T15:17:13;25.90;99.90
11748;DHT22;5931;48.832;9.072;2023-07-16T15:19:42;25.90;99.90
11748;DHT22;5931;48.832;9.072;2023-07-16T15:22:08;25.50;99.90
11748;DHT22;5931;48.832;9.072;2023-07-16T15:24:35;25.10;99.90
11748;DHT22;5931;48.832;9.072;2023-07-16T15:27:01;25.00;99.90
11748;DHT22;5931;48.832;9.072;2023-07-16T15:29:26;24.80;99.90
11748;DHT22;5931;48.832;9.072;2023-07-16T15:31:52;24.70;99.90
11748;DHT22;5931;48.832;9.072;2023-07-16T15:34:17;24.70;99.90
11748;DHT22;5931;48.832;9.072;2023-07-16T15:36:43;24.70;99.90
11748;DHT22;5931;48.832;9.072;2023-07-16T15:39:10;24.40;99.90
11748;DHT22;5931;48.832;9.072;2023-07-16T15:41:35;24.30;99.90
11748;DHT22;5931;48.832;9.072;2023-07-16T15:44:01;24.40;99.90
11748;DHT22;5931;48.832;9.072;2023-07-16T15:46:29;24.40;99.90
11748;DHT22;5931;48.832;9.072;2023-07-16T15:48:55;24.40;99.90